Ballymahon, Ireland
Current Conditions -  °F | °C
As of 4:00 PM on Friday 24 Oct 2014 (Local Time) from EIKN Reporting Station
Rain Showers Rain Showers  
Wind Chill: 10°   Ceiling: 3500
Heat Index: 10°   Visibility: 6mi
Dew Point:   Wind: 12mph
Humidity: 82%   Direction: 240°WSW
Pressure: 29.77"   Gusts: NA
Location:  53.56°N, 7.77°W
Report Text: EIKN 241600Z 24010KT 9999 -SHRA SCT014 SCT018CB BKN035 10/07 Q1008 NOSIG
Loading
Personal Weather Stations






























Interactive Weather Map
Tropical Storm Tracking
New forecast layout! Learn more

10-Day Weather Forecast

Advertisements
Track Severe Weather on mobile